Time;durP1;ratioP1;P1;durP2;ratioP2;P2;SDS_P1;SDS_P2;PMS_P1;PMS_P2;Temp;Humidity;BMP_temperature;BMP_pressure;BME280_temperature;BME280_humidity;BME280_pressure;Samples;Min_cycle;Max_cycle;Signal;HPM_P1;HPM_P2
2023/03/04 00:03:16;;;;;;;20.45;7.43;;;;;;;-0.12;99.65;100525.81;12203016;19;20006;-81
2023/03/04 00:07:17;;;;;;;17.00;6.72;;;;;;;-0.16;100.00;100530.72;12183840;19;20020;-81
2023/03/04 00:11:19;;;;;;;17.55;6.80;;;;;;;-0.22;100.00;100531.34;12212729;19;20007;-81
2023/03/04 00:15:20;;;;;;;20.77;8.48;;;;;;;-0.26;100.00;100527.28;12244212;19;20067;-82
2023/03/04 00:19:22;;;;;;;18.67;7.60;;;;;;;-0.31;100.00;100525.06;12245463;19;20022;-82
2023/03/04 00:23:24;;;;;;;15.52;7.65;;;;;;;-0.36;100.00;100524.69;12223443;19;20469;-82
2023/03/04 00:27:25;;;;;;;22.60;7.28;;;;;;;-0.38;100.00;100520.47;12208395;19;20120;-81
2023/03/04 00:31:27;;;;;;;20.08;7.25;;;;;;;-0.40;100.00;100525.19;12182107;19;20034;-81
2023/03/04 00:35:29;;;;;;;17.48;7.00;;;;;;;-0.41;100.00;100528.91;12204373;19;20002;-81
2023/03/04 00:39:30;;;;;;;18.50;7.03;;;;;;;-0.42;100.00;100535.31;12204433;19;20002;-80
2023/03/04 00:43:32;;;;;;;19.40;7.05;;;;;;;-0.41;100.00;100537.03;12177037;19;20030;-81
2023/03/04 00:47:33;;;;;;;19.75;7.03;;;;;;;-0.46;100.00;100524.81;12198330;19;20111;-81
2023/03/04 00:51:36;;;;;;;21.23;7.93;;;;;;;-0.50;100.00;100534.28;12197492;19;19999;-81
2023/03/04 00:55:37;;;;;;;21.50;8.93;;;;;;;-0.53;100.00;100536.47;12179597;19;20453;-81
2023/03/04 00:59:39;;;;;;;19.77;7.78;;;;;;;-0.54;100.00;100535.59;12202072;19;20007;-82
2023/03/04 01:03:44;;;;;;;26.00;9.20;;;;;;;-0.57;100.00;100527.78;12212283;19;20014;-81
2023/03/04 01:07:46;;;;;;;23.98;9.35;;;;;;;-0.62;100.00;100524.72;12238836;19;20046;-81
2023/03/04 01:11:47;;;;;;;20.48;8.70;;;;;;;-0.65;100.00;100526.91;12233487;19;20019;-80
2023/03/04 01:15:49;;;;;;;24.98;9.13;;;;;;;-0.66;100.00;100525.19;12202922;19;20614;-81
2023/03/04 01:19:50;;;;;;;23.25;9.85;;;;;;;-0.67;100.00;100524.34;12178957;19;20352;-81
2023/03/04 01:23:52;;;;;;;26.23;9.45;;;;;;;-0.70;100.00;100516.56;12199880;19;20003;-81
2023/03/04 01:27:54;;;;;;;24.27;9.15;;;;;;;-0.73;100.00;100509.59;12201342;19;20034;-81
2023/03/04 01:31:55;;;;;;;24.67;9.48;;;;;;;-0.75;100.00;100505.34;12176552;19;20413;-81
2023/03/04 01:35:57;;;;;;;26.38;9.90;;;;;;;-0.77;100.00;100508.22;12198648;19;20018;-81
2023/03/04 01:39:59;;;;;;;26.02;10.45;;;;;;;-0.81;100.00;100501.41;12196793;19;20031;-81
2023/03/04 01:44:01;;;;;;;25.48;10.30;;;;;;;-0.80;100.00;100500.44;12178457;19;20472;-82
2023/03/04 01:48:03;;;;;;;27.53;10.07;;;;;;;-0.78;100.00;100498.38;12209098;19;20031;-81
2023/03/04 01:52:08;;;;;;;23.50;9.95;;;;;;;-0.77;100.00;100491.16;12204950;19;20010;-81
2023/03/04 01:56:24;;;;;;;25.90;10.80;;;;;;;-0.75;100.00;100489.09;12180904;19;20022;-82
2023/03/04 02:00:31;;;;;;;21.85;8.88;;;;;;;-0.76;100.00;100490.97;12201940;19;20014;-82
2023/03/04 02:04:33;;;;;;;21.38;9.10;;;;;;;-0.75;100.00;100497.22;12187069;19;20002;-82
2023/03/04 02:08:35;;;;;;;28.98;10.70;;;;;;;-0.69;100.00;100485.75;12207351;19;20003;-82
2023/03/04 02:12:37;;;;;;;26.02;10.15;;;;;;;-0.55;100.00;100476.19;12206728;19;20007;-82
2023/03/04 02:16:39;;;;;;;28.15;10.80;;;;;;;-0.42;100.00;100475.75;12185029;19;20464;-84
2023/03/04 02:20:53;;;;;;;25.98;9.27;;;;;;;-0.25;100.00;100475.66;12207483;19;20437;-82
2023/03/04 02:25:05;;;;;;;27.92;10.63;;;;;;;-0.11;100.00;100466.06;12208665;19;20006;-81
2023/03/04 02:29:09;;;;;;;23.90;9.47;;;;;;;-0.05;100.00;100459.97;12183489;19;20078;-81
2023/03/04 02:33:17;;;;;;;26.48;11.20;;;;;;;-0.02;100.00;100461.50;12202548;19;20006;-83
2023/03/04 02:37:19;;;;;;;32.88;11.38;;;;;;;0.02;100.00;100456.59;12185254;19;20006;-82
2023/03/04 02:41:25;;;;;;;32.30;11.32;;;;;;;0.13;100.00;100459.84;12204591;19;20006;-82
2023/03/04 02:45:35;;;;;;;30.33;11.40;;;;;;;0.27;100.00;100454.78;12202826;19;20021;-81
2023/03/04 02:49:40;;;;;;;23.38;9.45;;;;;;;0.38;100.00;100455.31;12183975;19;20027;-82
2023/03/04 02:53:42;;;;;;;;;;;;;;;0.48;100.00;100452.44;12204202;19;20034;-81
2023/03/04 02:57:45;;;;;;;22.90;9.07;;;;;;;0.59;100.00;100456.66;12200471;19;19914;-81
2023/03/04 03:01:48;;;;;;;23.40;10.32;;;;;;;0.67;100.00;100451.25;12181223;19;20006;-81
2023/03/04 03:05:52;;;;;;;29.55;11.07;;;;;;;0.75;100.00;100453.97;12204612;19;20037;-82
2023/03/04 03:09:54;;;;;;;27.33;11.40;;;;;;;0.84;100.00;100449.38;12205368;19;20057;-81
2023/03/04 03:13:56;;;;;;;33.88;12.50;;;;;;;0.95;100.00;100454.44;12180872;19;20050;-80
2023/03/04 03:17:58;;;;;;;28.17;10.18;;;;;;;1.06;100.00;100448.66;12205704;19;19998;-80
2023/03/04 03:22:00;;;;;;;25.70;11.07;;;;;;;1.13;100.00;100443.38;12200909;19;20007;-80
2023/03/04 03:26:02;;;;;;;25.02;10.65;;;;;;;1.08;100.00;100441.19;12182097;19;20080;-80
2023/03/04 03:30:06;;;;;;;28.58;11.40;;;;;;;0.92;100.00;100441.22;12197933;19;20007;-82
2023/03/04 03:34:10;;;;;;;29.65;11.35;;;;;;;0.79;100.00;100440.91;12195335;19;20006;-80
2023/03/04 03:38:12;;;;;;;31.80;11.43;;;;;;;0.74;100.00;100441.41;12214742;19;20036;-81
2023/03/04 03:42:14;;;;;;;28.17;11.83;;;;;;;0.74;100.00;100430.56;12238782;19;20006;-81
2023/03/04 03:46:15;;;;;;;25.92;11.60;;;;;;;0.72;100.00;100424.47;12221947;19;20132;-82
2023/03/04 03:50:17;;;;;;;29.98;11.73;;;;;;;0.64;100.00;100435.31;12244514;19;20010;-81
2023/03/04 03:54:18;;;;;;;31.95;11.45;;;;;;;0.63;100.00;100439.06;12228222;19;20537;-81
2023/03/04 03:58:20;;;;;;;31.80;11.18;;;;;;;0.73;100.00;100438.88;12178807;19;20039;-82
2023/03/04 04:02:22;;;;;;;30.30;11.38;;;;;;;0.82;100.00;100427.84;12196589;19;20006;-80
2023/03/04 04:06:24;;;;;;;29.97;11.53;;;;;;;0.87;100.00;100433.59;12200150;19;20006;-81
2023/03/04 04:10:26;;;;;;;33.23;11.80;;;;;;;0.95;100.00;100438.16;12176787;19;20268;-79
2023/03/04 04:14:27;;;;;;;24.73;10.75;;;;;;;0.99;100.00;100433.25;12197805;19;20382;-81
2023/03/04 04:18:29;;;;;;;28.30;10.98;;;;;;;1.02;100.00;100427.47;12198941;19;21165;-82
2023/03/04 04:22:31;;;;;;;29.15;11.35;;;;;;;0.98;100.00;100432.41;12175967;19;20015;-82
2023/03/04 04:26:32;;;;;;;30.30;11.60;;;;;;;0.99;100.00;100434.09;12199487;19;20006;-80
2023/03/04 04:30:35;;;;;;;34.42;11.77;;;;;;;0.97;100.00;100441.56;12197311;19;20493;-82
2023/03/04 04:34:36;;;;;;;27.87;11.77;;;;;;;0.87;100.00;100433.59;12177064;19;20399;-82
2023/03/04 04:38:38;;;;;;;31.88;10.60;;;;;;;0.89;100.00;100434.28;12198848;19;21329;-80
2023/03/04 04:42:40;;;;;;;34.15;12.55;;;;;;;1.00;100.00;100432.22;12197045;19;20007;-82
2023/03/04 04:46:42;;;;;;;20.67;8.88;;;;;;;1.01;100.00;100445.63;12176699;19;20006;-83
2023/03/04 04:50:43;;;;;;;27.50;11.17;;;;;;;0.97;100.00;100446.97;12197446;19;20010;-82
2023/03/04 04:54:45;;;;;;;25.65;11.35;;;;;;;1.01;100.00;100436.63;12196480;19;20479;-82
2023/03/04 04:58:47;;;;;;;23.70;10.50;;;;;;;1.06;100.00;100434.25;12177668;19;20338;-81
2023/03/04 05:02:49;;;;;;;28.90;11.27;;;;;;;1.10;100.00;100438.28;12196843;19;20006;-82
2023/03/04 05:06:51;;;;;;;32.67;12.07;;;;;;;1.13;100.00;100432.53;12199369;19;20018;-82
2023/03/04 05:10:53;;;;;;;32.38;12.32;;;;;;;1.12;100.00;100438.97;12176991;19;20045;-83
2023/03/04 05:14:54;;;;;;;34.03;12.27;;;;;;;1.06;100.00;100434.25;12197708;19;20042;-82
2023/03/04 05:18:56;;;;;;;34.20;11.38;;;;;;;1.10;100.00;100432.88;12201062;19;20070;-82
2023/03/04 05:22:58;;;;;;;31.25;12.23;;;;;;;1.19;100.00;100431.84;12185032;19;20006;-80
2023/03/04 05:27:00;;;;;;;27.52;12.73;;;;;;;1.26;100.00;100427.41;12217955;19;20007;-80
2023/03/04 05:31:02;;;;;;;29.25;11.98;;;;;;;1.30;100.00;100427.91;12224281;19;20624;-80
2023/03/04 05:35:05;;;;;;;36.63;12.38;;;;;;;1.30;100.00;100427.91;12198135;19;20452;-81
2023/03/04 05:39:06;;;;;;;28.52;11.93;;;;;;;1.31;100.00;100422.31;12247487;19;20011;-82
2023/03/04 05:43:11;;;;;;;27.30;10.93;;;;;;;1.36;100.00;100424.50;12277060;19;19991;-80
2023/03/04 05:47:15;;;;;;;31.60;11.73;;;;;;;1.41;100.00;100429.41;12271837;19;20031;-80
2023/03/04 05:51:16;;;;;;;30.42;12.13;;;;;;;1.46;100.00;100429.72;12259308;19;20006;-81
2023/03/04 05:55:18;;;;;;;26.92;11.77;;;;;;;1.51;100.00;100425.44;12199786;19;20011;-81
2023/03/04 05:59:20;;;;;;;34.33;11.23;;;;;;;1.53;100.00;100428.00;12210175;19;20357;-81
2023/03/04 06:03:21;;;;;;;29.95;12.43;;;;;;;1.58;100.00;100425.59;12205156;19;20007;-80
2023/03/04 06:07:23;;;;;;;32.47;11.85;;;;;;;1.63;100.00;100439.50;12184810;19;20017;-80
2023/03/04 06:11:24;;;;;;;33.00;12.48;;;;;;;1.71;100.00;100427.75;12204352;19;20002;-79
2023/03/04 06:15:26;;;;;;;35.25;12.75;;;;;;;1.74;100.00;100433.66;12205138;19;20010;-80
2023/03/04 06:19:28;;;;;;;26.10;9.77;;;;;;;1.79;100.00;100447.59;12190305;19;20010;-80
2023/03/04 06:23:30;;;;;;;35.80;13.23;;;;;;;1.85;100.00;100461.50;12202750;19;20078;-80
2023/03/04 06:27:32;;;;;;;30.75;12.90;;;;;;;1.89;100.00;100451.94;12204849;19;19999;-80
2023/03/04 06:31:33;;;;;;;39.15;13.63;;;;;;;1.96;100.00;100461.94;12198045;19;19998;-80
2023/03/04 06:35:35;;;;;;;36.70;14.18;;;;;;;1.93;100.00;100461.44;12254075;19;19991;-80
2023/03/04 06:39:37;;;;;;;33.95;14.68;;;;;;;1.97;100.00;100465.50;12232997;19;20547;-79
2023/03/04 06:43:39;;;;;;;35.55;14.57;;;;;;;1.98;100.00;100465.31;12183849;19;20022;-80
2023/03/04 06:47:42;;;;;;;37.65;13.25;;;;;;;2.07;100.00;100481.59;12204845;19;20002;-80
2023/03/04 06:51:43;;;;;;;45.90;15.88;;;;;;;2.10;100.00;100487.50;12203594;19;20082;-80
2023/03/04 06:55:46;;;;;;;40.08;15.80;;;;;;;2.13;100.00;100484.44;12183290;19;20357;-78
2023/03/04 06:59:47;;;;;;;40.40;14.65;;;;;;;2.21;100.00;100480.81;12203975;19;20023;-80
2023/03/04 07:03:50;;;;;;;45.58;16.70;;;;;;;2.24;100.00;100484.03;12205085;19;20467;-80
2023/03/04 07:07:52;;;;;;;;;;;;;;;2.18;100.00;100484.75;12180157;19;20042;-80
2023/03/04 07:11:54;;;;;;;41.75;14.70;;;;;;;2.19;100.00;100489.16;12203642;19;19926;-80
2023/03/04 07:15:55;;;;;;;44.13;17.27;;;;;;;2.28;100.00;100488.06;12202988;19;20003;-80
2023/03/04 07:19:57;;;;;;;39.40;15.90;;;;;;;2.34;100.00;100493.81;12173635;19;20034;-81
2023/03/04 07:23:58;;;;;;;46.08;16.92;;;;;;;2.44;100.00;100499.88;12190646;19;20015;-80
2023/03/04 07:28:00;;;;;;;38.95;14.50;;;;;;;2.49;100.00;100497.47;12188321;19;20039;-81
2023/03/04 07:32:06;;;;;;;37.85;14.88;;;;;;;2.57;100.00;100499.28;12164253;19;20003;-80
2023/03/04 07:36:08;;;;;;;37.60;14.80;;;;;;;2.68;100.00;100490.72;12196332;19;20088;-80
2023/03/04 07:40:10;;;;;;;40.33;14.38;;;;;;;2.74;100.00;100495.44;12182455;19;20006;-80
2023/03/04 07:44:12;;;;;;;33.43;13.53;;;;;;;2.88;100.00;100501.94;12173421;19;20007;-81
2023/03/04 07:48:14;;;;;;;37.22;14.00;;;;;;;2.91;99.94;100498.84;12194953;19;20038;-80
2023/03/04 07:52:16;;;;;;;38.42;14.00;;;;;;;2.95;100.00;100511.91;12174069;19;20427;-80
2023/03/04 07:56:22;;;;;;;34.78;14.60;;;;;;;3.04;100.00;100523.59;12198780;19;20011;-81
2023/03/04 08:00:24;;;;;;;38.20;15.07;;;;;;;3.17;100.00;100514.78;12201255;19;20010;-82
2023/03/04 08:04:26;;;;;;;40.38;16.23;;;;;;;3.25;99.22;100520.16;12176604;19;19999;-81
2023/03/04 08:08:28;;;;;;;38.35;15.30;;;;;;;3.33;98.99;100527.38;12195576;19;20116;-80
2023/03/04 08:12:30;;;;;;;42.97;15.98;;;;;;;3.42;98.49;100516.25;12192090;19;20010;-80
2023/03/04 08:16:31;;;;;;;43.95;17.15;;;;;;;3.52;97.41;100515.13;12033345;19;2735606;-80
2023/03/04 08:20:33;;;;;;;40.80;16.52;;;;;;;3.57;97.22;100519.00;12195560;19;21140;-80
2023/03/04 08:24:35;;;;;;;44.72;16.35;;;;;;;3.70;97.04;100522.94;12198365;19;20006;-80
2023/03/04 08:28:37;;;;;;;43.70;16.70;;;;;;;3.84;96.32;100525.66;12176295;19;20002;-80
2023/03/04 08:32:39;;;;;;;39.30;16.15;;;;;;;3.92;95.28;100526.59;12200213;19;20002;-83
2023/03/04 08:36:41;;;;;;;33.40;13.00;;;;;;;3.98;94.49;100523.94;12197574;19;20010;-81
2023/03/04 08:40:43;;;;;;;43.03;16.67;;;;;;;4.09;94.82;100537.09;12170515;19;21297;-80
2023/03/04 08:44:45;;;;;;;45.67;17.00;;;;;;;4.15;93.11;100530.03;12189939;19;20381;-80
2023/03/04 08:48:46;;;;;;;37.80;17.50;;;;;;;4.22;92.87;100543.75;12187979;19;20017;-80
2023/03/04 08:52:48;;;;;;;38.28;16.42;;;;;;;4.22;91.28;100538.31;12165830;19;20014;-81
2023/03/04 08:56:50;;;;;;;50.35;18.52;;;;;;;4.25;92.73;100543.38;12192320;19;20026;-81
2023/03/04 09:00:51;;;;;;;39.25;17.02;;;;;;;4.32;91.07;100538.88;12188976;19;20702;-81
2023/03/04 09:04:53;;;;;;;47.72;17.73;;;;;;;4.35;91.09;100541.22;12172218;19;20018;-81
2023/03/04 09:08:55;;;;;;;50.22;18.95;;;;;;;4.38;90.05;100545.44;12192576;19;20011;-81
2023/03/04 09:12:57;;;;;;;42.03;18.50;;;;;;;4.54;90.25;100537.00;12189920;19;20039;-82
2023/03/04 09:16:59;;;;;;;40.60;17.20;;;;;;;4.55;89.14;100536.84;12171652;19;20007;-81
2023/03/04 09:21:01;;;;;;;47.20;19.83;;;;;;;4.65;88.93;100536.50;12190634;19;20115;-80
2023/03/04 09:25:03;;;;;;;46.03;17.92;;;;;;;4.60;88.00;100527.22;12190737;19;20006;-81
2023/03/04 09:29:05;;;;;;;43.15;18.75;;;;;;;4.78;88.45;100528.44;12173573;19;20424;-81
2023/03/04 09:33:08;;;;;;;50.75;18.15;;;;;;;4.99;87.23;100522.13;12189165;19;20361;-80
2023/03/04 09:37:10;;;;;;;49.72;18.83;;;;;;;5.23;86.95;100526.38;12191607;19;20003;-80
2023/03/04 09:41:17;;;;;;;46.85;18.35;;;;;;;5.28;85.58;100527.66;12166530;19;20031;-81
2023/03/04 09:45:22;;;;;;;40.05;17.13;;;;;;;5.52;85.96;100523.63;12189613;19;20018;-81
2023/03/04 09:49:24;;;;;;;40.80;16.63;;;;;;;5.67;83.94;100522.47;12169013;19;20002;-82
2023/03/04 09:53:39;;;;;;;38.15;16.73;;;;;;;5.84;82.45;100531.22;12185018;19;20804;-81
2023/03/04 09:58:11;;;;;;;36.35;15.98;;;;;;;5.88;79.71;100527.00;12189896;19;20337;-82
2023/03/04 10:02:37;;;;;;;36.42;15.75;;;;;;;6.01;80.09;100522.69;12167403;19;20005;-80
2023/03/04 10:06:42;;;;;;;36.65;14.45;;;;;;;6.19;80.03;100530.34;12198451;19;20026;-81
2023/03/04 10:10:48;;;;;;;35.17;14.63;;;;;;;6.29;78.53;100525.34;12188674;19;21211;-82
2023/03/04 10:14:59;;;;;;;38.55;16.27;;;;;;;6.31;78.42;100521.38;12211639;19;20002;-82
2023/03/04 10:19:24;;;;;;;31.40;14.90;;;;;;;6.47;78.28;100519.31;12207041;19;20003;-81
2023/03/04 10:23:27;;;;;;;36.03;15.10;;;;;;;6.62;77.52;100520.00;12182407;19;20523;-82
2023/03/04 10:27:31;;;;;;;37.03;14.88;;;;;;;6.74;76.10;100518.31;12237346;19;20003;-80
2023/03/04 10:31:35;;;;;;;30.27;15.18;;;;;;;6.68;74.56;100515.59;12237833;19;20022;-81
2023/03/04 10:35:37;;;;;;;35.65;16.45;;;;;;;6.80;75.14;100512.00;12204560;19;20027;-81
2023/03/04 10:39:45;;;;;;;37.05;15.63;;;;;;;6.97;73.44;100503.41;12226898;19;20120;-82
2023/03/04 10:44:08;;;;;;;42.15;17.02;;;;;;;7.11;72.78;100515.22;12183908;19;20006;-82
2023/03/04 10:48:25;;;;;;;35.65;15.82;;;;;;;7.31;72.64;100505.94;12204157;19;20002;-81
2023/03/04 10:52:29;;;;;;;39.95;16.90;;;;;;;7.33;70.65;100499.41;12201225;19;20479;-80
2023/03/04 10:56:34;;;;;;;37.53;16.98;;;;;;;7.22;70.46;100507.19;12257793;19;20021;-80
2023/03/04 11:00:36;;;;;;;40.40;18.65;;;;;;;7.31;70.97;100505.94;12231954;19;20010;-82
2023/03/04 11:04:38;;;;;;;32.90;12.82;;;;;;;7.27;69.30;100501.94;12192942;19;20078;-83
2023/03/04 11:08:40;;;;;;;42.00;18.17;;;;;;;7.25;69.97;100493.06;12265740;19;20027;-82
2023/03/04 11:12:48;;;;;;;47.38;18.52;;;;;;;7.21;69.86;100490.97;12249593;19;20007;-83
2023/03/04 11:16:58;;;;;;;45.08;17.98;;;;;;;7.23;70.38;100486.97;12187403;19;20036;-82
2023/03/04 11:21:00;;;;;;;40.13;18.35;;;;;;;7.34;69.79;100480.00;12203200;19;20003;-82
2023/03/04 11:25:16;;;;;;;42.70;18.17;;;;;;;7.48;69.85;100476.19;12198357;19;20327;-82
2023/03/04 11:29:27;;;;;;;33.33;14.15;;;;;;;7.44;68.73;100468.63;12170834;19;20467;-82
2023/03/04 11:33:47;;;;;;;32.97;15.32;;;;;;;7.30;69.24;100468.63;12192891;19;20120;-82
2023/03/04 11:38:06;;;;;;;37.85;15.68;;;;;;;7.27;69.20;100473.69;12176613;19;20010;-83
2023/03/04 11:42:32;;;;;;;32.88;14.82;;;;;;;7.25;69.44;100467.56;12206687;19;20031;-83
2023/03/04 11:47:11;;;;;;;34.70;14.40;;;;;;;7.21;68.93;100456.19;12174173;19;20015;-83
2023/03/04 11:51:38;;;;;;;32.97;14.07;;;;;;;7.16;68.83;100452.38;12191909;19;20366;-84
2023/03/04 11:55:51;;;;;;;37.65;13.95;;;;;;;6.96;69.77;100449.66;12174592;19;20752;-83
2023/03/04 12:00:12;;;;;;;34.78;13.75;;;;;;;6.87;69.94;100456.38;12197797;19;20397;-84
2023/03/04 12:05:08;;;;;;;35.85;15.45;;;;;;;6.79;70.28;100438.28;12176609;19;20014;-82
2023/03/04 12:09:19;;;;;;;29.20;13.80;;;;;;;6.86;70.43;100452.81;12193206;19;20014;-83
2023/03/04 12:13:52;;;;;;;34.63;14.25;;;;;;;6.96;70.19;100436.81;12182861;19;19999;-84
2023/03/04 12:18:07;;;;;;;31.58;12.38;;;;;;;7.00;69.29;100435.31;12210025;19;20034;-81
2023/03/04 12:22:15;;;;;;;32.30;13.20;;;;;;;6.91;69.27;100435.75;12213791;19;20006;-83
2023/03/04 12:26:55;;;;;;;28.00;12.85;;;;;;;6.81;68.70;100434.28;12185902;19;20006;-83
2023/03/04 12:31:25;;;;;;;28.75;12.77;;;;;;;6.84;69.70;100433.00;12209917;19;20027;-82
2023/03/04 12:35:58;;;;;;;32.85;12.27;;;;;;;6.70;69.79;100428.59;12190989;19;20031;-83
2023/03/04 12:39:59;;;;;;;30.73;12.38;;;;;;;6.68;70.18;100422.47;12217176;19;20010;-81
2023/03/04 12:44:15;;;;;;;32.75;13.00;;;;;;;6.67;69.99;100413.41;12197592;19;20011;-82
2023/03/04 12:48:29;;;;;;;30.98;13.07;;;;;;;6.67;69.96;100409.84;12212808;19;20282;-81
2023/03/04 12:52:52;;;;;;;35.75;13.73;;;;;;;6.68;70.16;100403.28;12187569;19;20019;-83
2023/03/04 12:57:00;;;;;;;33.83;14.40;;;;;;;6.75;70.42;100410.47;12203310;19;20007;-83
2023/03/04 13:01:14;;;;;;;36.90;14.10;;;;;;;6.76;70.41;100398.44;12203014;19;20018;-79
2023/03/04 13:05:23;;;;;;;26.17;13.07;;;;;;;6.81;69.97;100404.16;12177320;19;20017;-81
2023/03/04 13:09:33;;;;;;;27.88;12.65;;;;;;;6.77;70.11;100397.38;12205767;19;20090;-83
2023/03/04 13:13:40;;;;;;;36.47;13.90;;;;;;;6.74;69.54;100392.34;12180839;19;20002;-83
2023/03/04 13:17:48;;;;;;;29.85;13.07;;;;;;;6.64;70.57;100391.91;12204079;19;20038;-84
2023/03/04 13:21:53;;;;;;;27.13;13.45;;;;;;;6.65;70.70;100387.28;12195954;19;20007;-83
2023/03/04 13:25:54;;;;;;;27.40;11.80;;;;;;;6.75;70.78;100380.34;12180882;19;20019;-81
2023/03/04 13:29:57;;;;;;;34.60;14.03;;;;;;;6.83;70.09;100377.38;12201809;19;20787;-83
2023/03/04 13:34:00;;;;;;;31.85;13.93;;;;;;;7.00;70.14;100368.72;12196091;19;20010;-83
2023/03/04 13:38:20;;;;;;;35.38;13.98;;;;;;;7.16;68.95;100371.00;12180994;19;20020;-83
2023/03/04 13:42:43;;;;;;;35.35;13.50;;;;;;;7.29;67.90;100362.75;12208198;19;20002;-83
2023/03/04 13:46:45;;;;;;;29.50;13.40;;;;;;;7.49;68.31;100356.38;12189653;19;20058;-83
2023/03/04 13:50:48;;;;;;;32.60;13.87;;;;;;;7.69;67.26;100354.38;12211681;19;20011;-83
2023/03/04 13:54:50;;;;;;;32.65;13.68;;;;;;;7.78;66.13;100334.94;12207107;19;20011;-83
2023/03/04 13:59:19;;;;;;;31.10;13.32;;;;;;;7.76;65.84;100341.50;12185881;19;20025;-83
2023/03/04 14:03:27;;;;;;;35.28;13.18;;;;;;;7.76;65.85;100343.38;12207746;19;20476;-82
2023/03/04 14:07:31;;;;;;;35.83;14.23;;;;;;;7.74;65.63;100327.16;12187063;19;20010;-81
2023/03/04 14:11:40;;;;;;;32.72;11.85;;;;;;;7.67;65.98;100329.06;12210475;19;19999;-82
2023/03/04 14:15:55;;;;;;;28.90;12.40;;;;;;;7.82;65.08;100328.78;12216441;19;20806;-83
2023/03/04 14:19:58;;;;;;;34.05;13.13;;;;;;;7.80;65.27;100330.09;12205870;19;20031;-82
2023/03/04 14:24:12;;;;;;;29.33;13.65;;;;;;;7.87;65.71;100320.75;12261107;19;20010;-81
2023/03/04 14:28:17;;;;;;;24.83;10.52;;;;;;;7.78;65.66;100326.72;12234936;19;20046;-82
2023/03/04 14:32:19;;;;;;;26.35;10.07;;;;;;;7.73;65.74;100314.50;12252787;19;20028;-82
2023/03/04 14:36:22;;;;;;;27.25;10.35;;;;;;;7.75;66.00;100312.38;12250227;19;20060;-82
2023/03/04 14:40:54;;;;;;;22.63;10.70;;;;;;;7.73;66.18;100303.53;12213199;19;20042;-83
2023/03/04 14:44:59;;;;;;;23.20;10.40;;;;;;;7.67;66.18;100298.91;12210693;19;20057;-83
2023/03/04 14:49:01;;;;;;;24.15;9.93;;;;;;;7.63;66.53;100303.16;12213801;19;20620;-83
2023/03/04 14:53:13;;;;;;;25.58;9.73;;;;;;;7.41;66.46;100293.56;12183580;19;20031;-83
2023/03/04 14:57:17;;;;;;;24.95;10.02;;;;;;;7.22;67.21;100298.03;12205604;19;20003;-82
2023/03/04 15:01:29;;;;;;;22.92;10.57;;;;;;;7.13;67.71;100291.13;12191745;19;20011;-83
2023/03/04 15:05:35;;;;;;;26.08;11.30;;;;;;;6.91;68.32;100288.66;12210148;19;20018;-81
2023/03/04 15:09:39;;;;;;;28.25;10.93;;;;;;;6.87;68.62;100278.31;12210054;19;20023;-81
2023/03/04 15:13:48;;;;;;;25.88;10.32;;;;;;;6.80;69.15;100276.44;12219325;19;20014;-79
2023/03/04 15:17:58;;;;;;;27.60;11.27;;;;;;;6.75;69.41;100278.13;12230142;19;20003;-80
2023/03/04 15:22:05;;;;;;;25.42;11.35;;;;;;;6.76;69.60;100275.19;12203832;19;20018;-81
2023/03/04 15:26:09;;;;;;;24.88;10.23;;;;;;;6.61;69.83;100266.38;12182117;19;20675;-83
2023/03/04 15:30:16;;;;;;;24.27;11.35;;;;;;;6.56;70.44;100266.16;12201154;19;20102;-81
2023/03/04 15:34:19;;;;;;;28.27;12.48;;;;;;;6.53;70.90;100269.34;12174033;19;22316;-82
2023/03/04 15:38:21;;;;;;;35.13;13.50;;;;;;;6.35;70.97;100273.53;12196926;19;20015;-83
2023/03/04 15:42:23;;;;;;;34.33;13.77;;;;;;;6.31;71.71;100261.34;12216027;19;20064;-81
2023/03/04 15:46:26;;;;;;;29.45;12.55;;;;;;;6.23;72.16;100267.03;12185861;19;20266;-82
2023/03/04 15:50:28;;;;;;;26.48;12.23;;;;;;;6.18;72.35;100257.75;12200920;19;21414;-81
2023/03/04 15:54:30;;;;;;;;;;;;;;;6.14;73.14;100258.19;12199180;19;21096;-81
2023/03/04 15:58:32;;;;;;;28.23;11.50;;;;;;;6.16;72.87;100260.72;12174329;19;21155;-82
2023/03/04 16:02:36;;;;;;;31.08;12.38;;;;;;;6.13;73.17;100261.97;12195442;19;20571;-84
2023/03/04 16:06:40;;;;;;;29.33;12.32;;;;;;;6.08;73.44;100266.38;12200267;19;19998;-83
2023/03/04 16:10:43;;;;;;;26.95;12.30;;;;;;;6.00;74.05;100261.94;12183676;19;20412;-82
2023/03/04 16:14:45;;;;;;;32.13;11.57;;;;;;;5.90;74.54;100261.50;12200527;19;20104;-85
2023/03/04 16:18:47;;;;;;;27.67;11.35;;;;;;;5.93;74.77;100256.47;12208837;19;20333;-82
2023/03/04 16:22:53;;;;;;;25.15;11.30;;;;;;;5.90;74.76;100254.13;12179576;19;20023;-83
2023/03/04 16:26:56;;;;;;;23.13;10.45;;;;;;;5.86;75.32;100255.63;12204423;19;20424;-82
2023/03/04 16:30:57;;;;;;;23.60;9.63;;;;;;;5.79;75.58;100252.00;12201602;19;20346;-82
2023/03/04 16:34:59;;;;;;;26.08;11.60;;;;;;;5.79;75.70;100259.38;12181607;19;20468;-82
2023/03/04 16:39:05;;;;;;;31.33;11.23;;;;;;;5.74;76.29;100257.28;12203019;19;20013;-81
2023/03/04 16:43:09;;;;;;;26.50;9.85;;;;;;;5.74;76.06;100254.53;12203890;19;20026;-82
2023/03/04 16:47:11;;;;;;;26.70;10.77;;;;;;;5.72;76.50;100252.00;12184451;19;20007;-81
2023/03/04 16:51:17;;;;;;;25.42;10.70;;;;;;;5.76;76.54;100246.97;12206705;19;20019;-81
2023/03/04 16:55:22;;;;;;;26.27;11.20;;;;;;;5.72;76.73;100253.91;12181210;19;20107;-83
2023/03/04 16:59:25;;;;;;;22.98;11.52;;;;;;;5.74;76.98;100242.75;12215262;19;20074;-83
2023/03/04 17:03:27;;;;;;;25.98;10.65;;;;;;;5.71;76.93;100233.91;12256710;19;20081;-83
2023/03/04 17:07:32;;;;;;;26.63;11.02;;;;;;;5.67;76.99;100242.72;12243921;19;20003;-83
2023/03/04 17:11:36;;;;;;;30.90;11.70;;;;;;;5.67;77.20;100250.94;12235709;19;20022;-83
2023/03/04 17:15:37;;;;;;;24.52;10.50;;;;;;;5.70;77.21;100242.31;12210358;19;20027;-83
2023/03/04 17:19:40;;;;;;;22.20;10.77;;;;;;;5.74;77.43;100249.06;12190142;19;20006;-82
2023/03/04 17:23:42;;;;;;;24.77;9.73;;;;;;;5.77;77.28;100245.94;12210462;19;20002;-83
2023/03/04 17:27:43;;;;;;;22.30;9.48;;;;;;;5.78;77.48;100250.34;12211193;19;20290;-83
2023/03/04 17:31:45;;;;;;;22.70;8.30;;;;;;;5.80;77.77;100255.56;12188285;19;20002;-83
2023/03/04 17:35:47;;;;;;;19.13;8.50;;;;;;;5.78;77.55;100257.69;12210207;19;20026;-83
2023/03/04 17:39:49;;;;;;;19.40;8.90;;;;;;;5.79;77.74;100256.63;12214630;19;20006;-82
2023/03/04 17:43:53;;;;;;;20.30;8.33;;;;;;;5.81;77.74;100266.31;12191336;19;20011;-85
2023/03/04 17:47:55;;;;;;;20.98;8.55;;;;;;;5.85;77.63;100262.13;12258505;19;20007;-84
2023/03/04 17:51:57;;;;;;;20.63;8.20;;;;;;;5.85;77.87;100251.16;12261894;19;20002;-84
2023/03/04 17:56:02;;;;;;;16.57;7.87;;;;;;;5.82;77.85;100262.53;12238914;19;20042;-84
2023/03/04 18:00:04;;;;;;;19.80;8.15;;;;;;;5.85;78.14;100258.53;12257860;19;20278;-84
2023/03/04 18:04:07;;;;;;;25.58;8.20;;;;;;;5.84;78.12;100257.69;12262654;19;20014;-85
2023/03/04 18:08:09;;;;;;;19.83;7.65;;;;;;;5.85;78.21;100253.06;12239229;19;20028;-85
2023/03/04 18:12:11;;;;;;;18.85;7.60;;;;;;;5.85;78.35;100251.16;12259248;19;20030;-85
2023/03/04 18:16:15;;;;;;;21.70;8.30;;;;;;;5.87;78.58;100256.44;12227006;19;20373;-83
2023/03/04 18:20:18;;;;;;;19.83;8.02;;;;;;;5.86;78.57;100241.94;12227719;19;20013;-83
2023/03/04 18:24:19;;;;;;;13.77;5.83;;;;;;;5.87;78.63;100245.50;12219221;19;20044;-82
2023/03/04 18:28:21;;;;;;;18.77;8.10;;;;;;;5.87;78.85;100243.63;12188188;19;20173;-84
2023/03/04 18:32:23;;;;;;;19.77;7.47;;;;;;;5.89;78.57;100247.00;12211972;19;20029;-84